Time;durP1;ratioP1;P1;durP2;ratioP2;P2;SDS_P1;SDS_P2;PMS_P1;PMS_P2;Temp;Humidity;BMP_temperature;BMP_pressure;BME280_temperature;BME280_humidity;BME280_pressure;Samples;Min_cycle;Max_cycle;Signal;HPM_P1;HPM_P2
2022/07/02 00:41:44;;;;;;;21.65;5.57;;;;;;;16.32;48.13;100257.91;6238737;22;20027;-93
2022/07/02 00:55:09;;;;;;;13.68;5.60;;;;;;;15.70;48.52;100202.06;6234363;22;20054;-96
2022/07/02 01:24:05;;;;;;;16.17;6.20;;;;;;;15.73;50.70;100270.34;6228938;22;20028;-94
2022/07/02 02:16:56;;;;;;;18.58;5.43;;;;;;;16.53;49.18;100305.78;6195879;22;20008;-96
2022/07/02 02:23:40;;;;;;;23.30;6.40;;;;;;;16.63;48.21;100297.13;6263447;22;20031;-94
2022/07/02 03:07:27;;;;;;;20.15;5.57;;;;;;;17.27;47.52;100265.03;6211933;22;20033;-93
2022/07/02 03:20:33;;;;;;;24.17;6.10;;;;;;;17.70;46.40;100302.63;6267629;22;20027;-93
2022/07/02 03:23:15;;;;;;;15.38;6.35;;;;;;;17.53;45.98;100273.94;6213149;23;20479;-94
2022/07/02 03:28:39;;;;;;;25.35;5.40;;;;;;;17.38;45.48;100249.66;6252575;23;20032;-94
2022/07/02 03:31:05;;;;;;;21.45;6.45;;;;;;;17.68;46.11;100266.19;6174913;23;20012;-95
2022/07/02 03:33:32;;;;;;;13.90;6.63;;;;;;;17.46;46.80;100246.03;6172989;23;20020;-95
2022/07/02 03:43:51;;;;;;;16.95;6.15;;;;;;;17.51;45.55;100218.16;6228314;22;20038;-92
2022/07/02 03:46:27;;;;;;;26.13;6.40;;;;;;;18.15;45.05;100311.06;6210884;23;20031;-94
2022/07/02 04:03:52;;;;;;;26.10;5.70;;;;;;;18.36;41.59;100327.63;6240408;22;20099;-94
2022/07/02 04:19:49;;;;;;;9.63;5.15;;;;;;;18.71;41.28;100332.84;6261582;22;20031;-94
2022/07/02 04:29:17;;;;;;;12.97;4.70;;;;;;;18.80;39.41;100292.00;6236822;22;20028;-93
2022/07/02 04:32:06;;;;;;;14.48;5.00;;;;;;;19.08;39.14;100316.28;6168064;23;20044;-95
2022/07/02 04:35:05;;;;;;;36.17;5.57;;;;;;;19.19;39.24;100307.16;6092889;22;20409;-93
2022/07/02 04:48:07;;;;;;;12.75;4.57;;;;;;;19.40;36.67;100304.28;6271042;22;20035;-93
2022/07/02 05:10:44;;;;;;;11.07;4.07;;;;;;;19.90;34.73;100293.88;6197347;22;20020;-93
2022/07/02 05:17:11;;;;;;;13.23;4.20;;;;;;;19.94;33.52;100295.63;6254794;22;20490;-96
2022/07/02 05:20:25;;;;;;;8.25;3.97;;;;;;;19.90;34.00;100300.25;6156577;22;20043;-93
2022/07/02 05:37:33;;;;;;;13.13;5.55;;;;;;;19.92;34.05;100288.78;6222967;22;20110;-91
2022/07/02 05:40:24;;;;;;;27.67;4.85;;;;;;;20.08;34.03;100297.19;6221633;23;20608;-92
2022/07/02 05:44:06;;;;;;;14.07;4.40;;;;;;;20.11;33.96;100291.75;6235770;22;20365;-92
2022/07/02 05:46:56;;;;;;;18.92;4.85;;;;;;;20.24;33.70;100286.13;6212151;23;20020;-92
2022/07/02 05:49:22;;;;;;;35.38;5.45;;;;;;;20.24;33.86;100263.94;6195197;23;20024;-94
2022/07/02 05:51:50;;;;;;;18.52;4.65;;;;;;;20.31;32.04;100281.56;6205736;22;20039;-94
2022/07/02 05:54:28;;;;;;;19.45;5.07;;;;;;;20.18;31.82;100232.81;6190644;23;20040;-94
2022/07/02 05:57:46;;;;;;;27.95;5.45;;;;;;;20.56;32.55;100281.47;6112002;22;20832;-94
2022/07/02 06:20:12;;;;;;;53.55;6.35;;;;;;;20.42;32.37;100227.13;6223004;22;20102;-94
2022/07/02 06:30:31;;;;;;;25.15;6.00;;;;;;;20.45;32.15;100219.25;6217488;23;20028;-93
2022/07/02 06:32:57;;;;;;;30.25;4.95;;;;;;;20.86;32.40;100268.75;6190621;23;20123;-90
2022/07/02 06:35:24;;;;;;;34.83;6.35;;;;;;;20.57;31.32;100199.75;6215204;23;20470;-92
2022/07/02 06:37:53;;;;;;;26.40;5.82;;;;;;;20.76;31.75;100208.16;6189743;23;20016;-93
2022/07/02 06:40:20;;;;;;;13.43;4.82;;;;;;;20.99;31.27;100236.13;6164566;23;20028;-86
2022/07/02 06:42:46;;;;;;;18.63;4.70;;;;;;;21.18;30.47;100252.03;6214100;23;20044;-85
2022/07/02 06:45:12;;;;;;;19.52;5.07;;;;;;;20.92;30.58;100226.78;6215923;23;20390;-86
2022/07/02 06:47:43;;;;;;;23.50;6.18;;;;;;;20.98;31.64;100223.38;6214612;23;20032;-89
2022/07/02 06:50:10;;;;;;;35.17;6.20;;;;;;;21.30;32.91;100248.34;6166777;23;20032;-90
2022/07/02 06:52:36;;;;;;;65.75;8.70;;;;;;;21.38;31.47;100232.66;6189951;23;20023;-89
2022/07/02 06:55:04;;;;;;;62.63;8.13;;;;;;;21.38;31.52;100215.94;6167491;23;20016;-90
2022/07/02 06:57:30;;;;;;;32.28;5.35;;;;;;;21.59;30.45;100258.16;6167082;23;20016;-90
2022/07/02 06:59:56;;;;;;;30.83;5.38;;;;;;;21.42;30.68;100241.88;6189195;23;20055;-88
2022/07/02 07:02:22;;;;;;;14.13;5.13;;;;;;;21.41;29.78;100241.06;6213614;23;20016;-89
2022/07/02 07:04:49;;;;;;;28.83;5.63;;;;;;;21.48;30.63;100268.22;6189209;23;20020;-88
2022/07/02 07:07:16;;;;;;;15.98;5.65;;;;;;;21.14;30.51;100228.91;6214238;23;20439;-88
2022/07/02 07:09:46;;;;;;;13.30;4.72;;;;;;;21.25;31.17;100229.16;6165002;23;20020;-90
2022/07/02 07:12:13;;;;;;;44.58;5.93;;;;;;;21.18;31.30;100196.41;6214290;23;20083;-87
2022/07/02 07:14:40;;;;;;;30.17;5.50;;;;;;;21.39;31.49;100214.78;6213501;23;20557;-87
2022/07/02 07:17:17;;;;;;;28.27;5.30;;;;;;;21.28;30.20;100189.47;6163987;23;20091;-88
2022/07/02 07:19:43;;;;;;;69.03;7.78;;;;;;;21.54;31.41;100241.75;6215510;23;20047;-95
2022/07/02 07:22:09;;;;;;;36.17;6.55;;;;;;;21.57;31.20;100233.47;6215500;23;20016;-87
2022/07/02 07:24:36;;;;;;;12.25;5.00;;;;;;;21.53;31.71;100190.88;6217059;23;20082;-95
2022/07/02 07:27:02;;;;;;;18.30;5.35;;;;;;;21.70;30.84;100214.66;6245175;22;20012;-87
2022/07/02 07:29:28;;;;;;;28.17;5.90;;;;;;;21.82;30.55;100222.06;6251263;22;20015;-86
2022/07/02 07:31:54;;;;;;;22.57;4.90;;;;;;;21.80;31.38;100199.34;6252318;22;20344;-85
2022/07/02 07:34:20;;;;;;;16.05;4.78;;;;;;;21.98;29.98;100224.75;6251012;22;20336;-92
2022/07/02 07:36:47;;;;;;;9.00;4.05;;;;;;;22.03;30.11;100235.59;6279323;22;20019;-90
2022/07/02 07:39:13;;;;;;;10.55;4.15;;;;;;;22.00;30.31;100223.22;6253233;22;20162;-93
2022/07/02 07:41:40;;;;;;;35.47;5.28;;;;;;;22.23;30.51;100226.06;6251445;22;20322;-85
2022/07/02 07:44:06;;;;;;;34.25;6.88;;;;;;;22.33;30.96;100235.78;6250747;22;20008;-86
2022/07/02 07:46:32;;;;;;;32.97;6.35;;;;;;;22.33;30.93;100229.44;6203255;22;20023;-96
2022/07/02 07:48:59;;;;;;;11.75;4.07;;;;;;;22.44;30.13;100236.00;6203170;22;20102;-86
2022/07/02 07:51:25;;;;;;;21.65;4.70;;;;;;;22.53;31.01;100219.84;6200353;22;20098;-87
2022/07/02 07:53:51;;;;;;;16.95;4.85;;;;;;;22.60;30.77;100222.72;6278883;22;20086;-86
2022/07/02 07:56:18;;;;;;;30.73;5.38;;;;;;;22.66;30.39;100201.75;6275120;22;20018;-90
2022/07/02 07:58:44;;;;;;;;;;;;;;;22.89;29.62;100220.44;6198917;22;20387;-94
2022/07/02 08:01:11;;;;;;;112.90;12.35;;;;;;;22.91;29.31;100226.41;6198570;22;19915;-87
2022/07/02 08:03:37;;;;;;;28.77;4.60;;;;;;;22.63;27.41;100230.34;6198729;22;20019;-93
2022/07/02 08:06:07;;;;;;;26.77;5.13;;;;;;;22.46;28.69;100212.16;6199916;22;20073;-89
2022/07/02 08:08:33;;;;;;;39.60;5.45;;;;;;;22.43;28.61;100209.31;6201405;22;20086;-89
2022/07/02 08:11:00;;;;;;;;;;;;;;;22.52;29.14;100223.81;6280034;22;20046;-91
2022/07/02 08:13:28;;;;;;;23.27;4.32;;;;;;;22.60;28.47;100228.31;6226823;22;19915;-86
2022/07/02 08:15:55;;;;;;;16.65;4.15;;;;;;;22.26;27.93;100194.69;6223738;22;20039;-87
2022/07/02 08:18:21;;;;;;;18.48;4.88;;;;;;;22.31;28.59;100223.41;6275122;22;20046;-83
2022/07/02 08:20:48;;;;;;;;;;;;;;;22.35;28.30;100227.06;6275637;22;20048;-87
2022/07/02 08:23:14;;;;;;;23.42;4.72;;;;;;;22.38;30.45;100220.75;6275012;22;20020;-83
2022/07/02 08:25:41;;;;;;;16.00;4.30;;;;;;;22.53;28.32;100211.47;6274680;22;20023;-84
2022/07/02 08:28:07;;;;;;;;;;;;;;;22.67;28.20;100220.06;6247514;22;20069;-84
2022/07/02 08:30:33;;;;;;;20.67;4.57;;;;;;;22.81;28.93;100207.53;6274994;22;20306;-84
2022/07/02 08:33:00;;;;;;;26.48;5.65;;;;;;;22.86;27.53;100196.06;6274698;22;20019;-87
2022/07/02 08:35:26;;;;;;;22.70;4.60;;;;;;;22.71;26.89;100204.22;6247788;22;20015;-88
2022/07/02 08:37:54;;;;;;;37.13;5.60;;;;;;;22.75;27.61;100205.09;6197563;22;20023;-84
2022/07/02 08:40:25;;;;;;;25.77;5.68;;;;;;;22.66;27.85;100198.94;6274070;22;20028;-84
2022/07/02 08:42:53;;;;;;;40.10;6.30;;;;;;;22.71;27.70;100207.00;6247460;22;20019;-87
2022/07/02 08:45:22;;;;;;;40.50;6.25;;;;;;;22.66;27.09;100173.06;6248209;22;20468;-88
2022/07/02 08:47:51;;;;;;;44.47;5.57;;;;;;;22.58;28.17;100174.91;6249171;22;20019;-84
2022/07/02 08:50:19;;;;;;;29.58;5.38;;;;;;;22.63;26.47;100196.13;6224543;22;20027;-86
2022/07/02 08:52:49;;;;;;;24.67;4.85;;;;;;;22.62;26.59;100188.94;6275787;22;20019;-87
2022/07/02 08:55:20;;;;;;;44.67;6.15;;;;;;;22.46;26.30;100181.50;6276038;22;20020;-85
2022/07/02 08:57:48;;;;;;;36.13;6.20;;;;;;;22.51;27.14;100167.25;6246241;22;20481;-87
2022/07/02 09:00:16;;;;;;;12.75;4.55;;;;;;;22.72;27.20;100166.81;6222943;22;20055;-87
2022/07/02 09:02:43;;;;;;;25.02;4.90;;;;;;;22.97;27.96;100183.94;6276081;22;20079;-86
2022/07/02 09:05:11;;;;;;;16.05;4.65;;;;;;;23.10;26.33;100180.91;6248400;22;20011;-90
2022/07/02 09:07:39;;;;;;;30.38;6.32;;;;;;;23.13;27.45;100174.59;6197169;22;20234;-85
2022/07/02 09:10:06;;;;;;;67.05;7.18;;;;;;;23.08;27.70;100144.22;6275701;22;20011;-89
2022/07/02 09:12:35;;;;;;;30.92;5.68;;;;;;;23.17;25.70;100147.53;6276241;22;20402;-89
2022/07/02 09:15:03;;;;;;;16.48;4.72;;;;;;;23.18;26.88;100133.25;6276189;22;20485;-86
2022/07/02 09:17:30;;;;;;;23.55;5.78;;;;;;;23.19;25.83;100123.69;6222350;22;20022;-87
2022/07/02 09:19:56;;;;;;;26.33;5.18;;;;;;;23.51;25.60;100159.56;6246888;22;20023;-90
2022/07/02 09:22:41;;;;;;;37.17;6.28;;;;;;;23.40;25.51;100148.25;6221411;22;20020;-86
2022/07/02 09:25:15;;;;;;;27.02;5.35;;;;;;;23.43;25.02;100167.03;6223100;22;20015;-89
2022/07/02 09:27:44;;;;;;;28.92;5.22;;;;;;;23.46;26.24;100154.31;6199161;22;20024;-89
2022/07/02 09:30:14;;;;;;;15.65;4.82;;;;;;;23.60;26.10;100153.66;6223543;22;20027;-89
2022/07/02 09:32:42;;;;;;;24.67;5.25;;;;;;;23.35;24.85;100117.09;6224420;22;20020;-87
2022/07/02 09:35:22;;;;;;;22.77;5.78;;;;;;;23.46;24.13;100123.59;6188122;23;20064;-88
2022/07/02 09:37:50;;;;;;;23.27;4.80;;;;;;;23.57;25.12;100132.09;6138765;23;20059;-88
2022/07/02 09:40:17;;;;;;;21.23;4.82;;;;;;;23.45;24.80;100106.06;6187738;23;20021;-89
2022/07/02 09:42:48;;;;;;;45.88;6.50;;;;;;;23.75;24.64;100135.13;6212413;23;20028;-88
2022/07/02 09:45:16;;;;;;;14.48;4.60;;;;;;;23.71;23.90;100120.31;6162943;23;20024;-89
2022/07/02 09:47:48;;;;;;;15.70;4.05;;;;;;;23.64;24.09;100112.63;6212733;23;20092;-88
2022/07/02 09:50:16;;;;;;;11.60;3.95;;;;;;;23.49;25.38;100088.56;6162053;23;20023;-86
2022/07/02 09:52:58;;;;;;;20.27;4.40;;;;;;;23.64;24.84;100119.03;6211188;23;20017;-87
2022/07/02 09:55:30;;;;;;;12.73;3.95;;;;;;;23.55;24.49;100104.59;6209928;23;20024;-86
2022/07/02 09:57:59;;;;;;;23.58;4.55;;;;;;;23.56;25.49;100091.44;6134943;23;20035;-86
2022/07/02 10:00:27;;;;;;;33.42;5.00;;;;;;;23.65;24.30;100095.53;6210353;23;20030;-86
2022/07/02 10:02:56;;;;;;;37.15;5.22;;;;;;;23.81;25.37;100102.91;6160621;23;20031;-87
2022/07/02 10:05:28;;;;;;;15.10;4.72;;;;;;;23.77;24.59;100105.63;6162310;23;20523;-86
2022/07/02 10:07:56;;;;;;;8.95;4.20;;;;;;;23.83;25.06;100094.91;6210765;23;20024;-87
2022/07/02 10:10:38;;;;;;;13.95;4.63;;;;;;;23.94;24.69;100090.25;6160117;23;20362;-85
2022/07/02 10:13:10;;;;;;;15.45;3.47;;;;;;;23.85;23.61;100065.44;6177965;22;20040;-85
2022/07/02 10:15:40;;;;;;;11.38;3.42;;;;;;;23.87;22.60;100067.84;6247936;22;20334;-84
2022/07/02 10:18:08;;;;;;;22.23;4.10;;;;;;;23.68;23.23;100066.88;6276109;22;20022;-86
2022/07/02 10:20:34;;;;;;;10.93;4.05;;;;;;;23.90;23.56;100083.81;6248892;22;20477;-86
2022/07/02 10:23:05;;;;;;;21.52;4.50;;;;;;;23.99;23.62;100075.94;6198818;22;20023;-87
2022/07/02 10:25:33;;;;;;;12.25;4.28;;;;;;;24.00;23.07;100068.34;6211937;23;20103;-88
2022/07/02 10:28:01;;;;;;;9.93;3.78;;;;;;;23.97;23.37;100046.78;6133055;23;20053;-87
2022/07/02 10:30:34;;;;;;;7.80;3.75;;;;;;;24.19;22.36;100047.75;6134688;23;20480;-87
2022/07/02 10:33:03;;;;;;;56.75;6.10;;;;;;;24.47;25.13;100058.34;6185806;23;20063;-85
2022/07/02 10:35:30;;;;;;;43.58;5.20;;;;;;;24.66;24.96;100051.69;6213418;23;20467;-85
2022/07/02 10:37:57;;;;;;;11.70;4.35;;;;;;;24.66;22.73;100046.91;6139958;23;20020;-85
2022/07/02 10:40:24;;;;;;;8.38;3.53;;;;;;;24.60;22.09;100040.91;6214292;23;20638;-84
2022/07/02 10:42:52;;;;;;;11.48;4.32;;;;;;;24.76;22.38;100040.56;6187926;23;20068;-86
2022/07/02 10:45:20;;;;;;;21.10;4.40;;;;;;;24.67;21.68;100030.91;6138034;23;20162;-86
2022/07/02 10:48:08;;;;;;;21.50;4.78;;;;;;;24.61;21.93;100027.72;6186684;23;20016;-85
2022/07/02 10:50:38;;;;;;;10.65;3.88;;;;;;;24.77;21.57;100041.38;6187369;23;20020;-85
2022/07/02 10:53:24;;;;;;;8.77;3.47;;;;;;;24.83;23.08;100039.78;6212923;23;20486;-86
2022/07/02 10:55:58;;;;;;;11.52;4.10;;;;;;;25.02;23.20;100025.50;6163261;23;20414;-85
2022/07/02 10:58:34;;;;;;;13.70;3.88;;;;;;;25.28;24.48;100035.63;6189230;23;20017;-84
2022/07/02 11:01:12;;;;;;;26.50;4.60;;;;;;;25.34;22.57;100033.25;6164315;23;20378;-87
2022/07/02 11:03:51;;;;;;;14.68;4.00;;;;;;;25.26;21.81;100010.00;6239812;23;20024;-87
2022/07/02 11:06:25;;;;;;;9.30;4.18;;;;;;;25.08;22.00;100009.94;6245793;22;20012;-87
2022/07/02 11:09:01;;;;;;;13.70;4.57;;;;;;;25.29;23.08;100016.81;6246340;22;20023;-87
2022/07/02 11:11:36;;;;;;;56.10;7.22;;;;;;;25.40;21.22;100033.66;6245834;23;20072;-87
2022/07/02 11:14:12;;;;;;;10.32;3.85;;;;;;;25.41;22.61;100007.25;6247602;22;20074;-87
2022/07/02 11:16:41;;;;;;;10.45;4.13;;;;;;;25.59;23.36;100002.47;6244953;23;20107;-87
2022/07/02 11:19:17;;;;;;;12.18;4.05;;;;;;;25.98;22.54;100021.34;6244995;22;20281;-87
2022/07/02 11:21:44;;;;;;;8.73;3.95;;;;;;;26.11;23.20;100010.53;6218516;23;20098;-88
2022/07/02 11:24:40;;;;;;;34.53;4.65;;;;;;;26.15;22.12;100025.34;6244291;23;20051;-89
2022/07/02 11:29:55;;;;;;;37.88;5.32;;;;;;;26.01;21.08;99989.72;6098151;23;20440;-89
2022/07/02 11:32:22;;;;;;;21.30;4.55;;;;;;;26.16;20.32;99996.94;6074154;23;20018;-89
2022/07/02 11:38:00;;;;;;;54.83;6.25;;;;;;;26.36;21.16;99982.47;6122941;23;20022;-89
2022/07/02 11:40:27;;;;;;;39.28;5.25;;;;;;;26.29;21.09;100018.91;6124865;23;20053;-89
2022/07/02 11:42:54;;;;;;;19.88;4.90;;;;;;;25.72;20.65;99977.69;6100350;23;20021;-88
2022/07/02 11:45:21;;;;;;;12.07;4.47;;;;;;;25.95;21.25;99991.31;6100244;23;20014;-89
2022/07/02 11:47:50;;;;;;;;;;;;;;;26.04;20.38;100010.53;6125159;23;20018;-87
2022/07/02 11:50:31;;;;;;;8.68;4.00;;;;;;;26.05;20.54;99989.72;6125258;23;20003;-86
2022/07/02 11:52:59;;;;;;;37.08;5.90;;;;;;;26.18;21.29;99993.72;6101354;23;20022;-87
2022/07/02 11:55:25;;;;;;;25.25;5.55;;;;;;;26.37;23.27;99982.06;6125451;23;20395;-87
2022/07/02 11:57:52;;;;;;;28.67;5.78;;;;;;;26.62;22.64;99975.59;6098663;23;20460;-87
2022/07/02 12:00:19;;;;;;;78.18;11.07;;;;;;;26.79;21.15;99971.94;6074296;23;20022;-87
2022/07/02 12:02:45;;;;;;;68.75;8.38;;;;;;;26.86;20.99;99982.34;6122350;23;20138;-86
2022/07/02 12:05:19;;;;;;;13.30;4.10;;;;;;;26.62;21.17;99981.22;6073809;23;20039;-88
2022/07/02 12:07:46;;;;;;;34.97;5.68;;;;;;;26.70;20.92;99985.59;6171459;23;20024;-89
2022/07/02 12:10:14;;;;;;;38.35;5.63;;;;;;;26.62;21.05;99978.41;6127629;23;20022;-89
2022/07/02 12:12:41;;;;;;;18.63;4.70;;;;;;;26.61;21.14;99974.00;6079380;23;20013;-89
2022/07/02 12:15:08;;;;;;;17.92;4.57;;;;;;;26.62;21.35;99976.44;6079358;23;20037;-89
2022/07/02 12:17:47;;;;;;;16.67;4.43;;;;;;;26.68;21.44;99965.56;6102568;23;20024;-88
2022/07/02 12:20:15;;;;;;;12.70;4.70;;;;;;;26.78;20.88;99970.34;6127837;23;20025;-90
2022/07/02 12:22:42;;;;;;;33.75;4.65;;;;;;;26.62;20.73;99962.41;6080241;23;20024;-89
2022/07/02 12:25:08;;;;;;;;;;;;;;;26.73;22.00;99973.56;6130104;23;20024;-87
2022/07/02 12:27:36;;;;;;;14.18;4.18;;;;;;;26.97;21.44;99977.47;6130873;23;19912;-88
2022/07/02 12:30:15;;;;;;;25.55;5.28;;;;;;;27.10;20.47;99972.97;6104278;23;20037;-89
2022/07/02 12:32:50;;;;;;;29.88;5.82;;;;;;;27.19;21.30;99955.72;6184083;23;20053;-90
2022/07/02 12:35:17;;;;;;;25.25;5.32;;;;;;;27.13;21.01;99946.13;6134465;23;20506;-89
2022/07/02 12:37:52;;;;;;;15.88;5.25;;;;;;;27.39;23.79;99959.59;6183074;23;20017;-88
2022/07/02 12:41:24;;;;;;;67.88;7.97;;;;;;;27.73;22.66;99967.38;6182944;23;20025;-90
2022/07/02 12:43:55;;;;;;;35.72;7.05;;;;;;;27.58;20.31;99963.88;6181750;23;20012;-87
2022/07/02 12:46:23;;;;;;;40.13;6.78;;;;;;;27.50;21.36;99956.72;6097720;23;20014;-89
2022/07/02 12:48:49;;;;;;;31.77;5.72;;;;;;;27.39;20.90;99933.53;6050185;23;20546;-89
2022/07/02 12:51:16;;;;;;;54.03;8.43;;;;;;;27.60;21.15;99966.28;6073915;23;20021;-89
2022/07/02 12:53:42;;;;;;;41.55;7.45;;;;;;;27.43;20.67;99951.16;6050562;23;20104;-90
2022/07/02 12:56:10;;;;;;;;;;;;;;;27.53;21.38;99955.88;6097716;23;20037;-91
2022/07/02 12:58:39;;;;;;;77.68;10.73;;;;;;;27.41;21.85;99962.78;6050787;23;19965;-89
2022/07/02 13:01:06;;;;;;;26.90;5.93;;;;;;;27.40;21.14;99949.16;6113135;23;20020;-88
2022/07/02 13:04:18;;;;;;;29.60;6.15;;;;;;;27.18;22.00;99909.22;6114977;23;20869;-91
2022/07/02 13:06:47;;;;;;;50.95;17.65;;;;;;;27.64;22.77;99917.25;6096805;23;20571;-88
2022/07/02 13:09:13;;;;;;;25.38;9.73;;;;;;;27.87;20.85;99924.31;6072042;23;20034;-89
2022/07/02 13:11:39;;;;;;;31.00;6.25;;;;;;;27.96;20.54;99952.75;6071706;23;20457;-87
2022/07/02 13:14:05;;;;;;;39.88;12.88;;;;;;;27.44;20.83;99874.13;6070551;23;20026;-88
2022/07/02 13:16:31;;;;;;;34.47;6.25;;;;;;;27.76;21.36;99951.69;6119726;23;20022;-93
2022/07/02 13:18:57;;;;;;;31.23;5.50;;;;;;;27.91;20.55;99946.75;6070812;23;20540;-88
2022/07/02 13:21:27;;;;;;;76.03;9.63;;;;;;;28.07;20.85;99945.00;6093899;23;20025;-87
2022/07/02 13:23:53;;;;;;;34.65;6.43;;;;;;;28.11;20.26;99936.53;6110164;23;20022;-88
2022/07/02 13:26:19;;;;;;;37.95;7.80;;;;;;;27.61;20.44;99884.38;6143093;22;20028;-88
2022/07/02 13:29:37;;;;;;;46.80;7.03;;;;;;;27.95;21.02;99923.06;6274698;22;20019;-89
2022/07/02 13:32:04;;;;;;;55.15;7.57;;;;;;;27.97;20.15;99920.59;6247791;22;20016;-88
2022/07/02 13:34:31;;;;;;;65.47;11.20;;;;;;;28.01;21.29;99920.56;6222867;22;20079;-87
2022/07/02 13:36:58;;;;;;;29.90;6.22;;;;;;;28.26;21.17;99917.50;6197636;22;20016;-88
2022/07/02 13:39:24;;;;;;;65.45;9.27;;;;;;;28.05;20.16;99901.69;6197704;22;20022;-88
2022/07/02 13:41:52;;;;;;;49.58;7.07;;;;;;;28.30;20.20;99913.41;6275878;22;20027;-88
2022/07/02 13:44:18;;;;;;;39.15;5.30;;;;;;;28.22;20.47;99905.50;6249779;22;20015;-87
2022/07/02 13:46:44;;;;;;;;;;;;;;;27.89;20.81;99907.06;6277066;22;20022;-89
2022/07/02 13:49:10;;;;;;;;;;;;;;;27.58;21.19;99907.72;6248338;22;19915;-87
2022/07/02 13:51:37;;;;;;;93.50;8.75;;;;;;;27.78;21.09;99907.13;6197364;22;19911;-87
2022/07/02 13:54:03;;;;;;;39.60;5.53;;;;;;;27.79;21.56;99903.94;6199530;22;20077;-88
2022/07/02 13:56:29;;;;;;;83.90;18.00;;;;;;;27.98;22.78;99896.09;6200044;22;20027;-87
2022/07/02 13:58:55;;;;;;;25.48;5.85;;;;;;;28.03;20.58;99873.97;6276633;22;20012;-88
2022/07/02 14:01:23;;;;;;;33.70;6.68;;;;;;;28.07;20.25;99871.13;6276622;22;20026;-88
2022/07/02 14:03:49;;;;;;;33.00;6.03;;;;;;;28.03;19.54;99899.28;6276565;22;20012;-89
2022/07/02 14:06:15;;;;;;;37.80;6.93;;;;;;;27.44;21.01;99834.00;6199051;22;20330;-87
2022/07/02 14:08:41;;;;;;;30.83;5.20;;;;;;;27.97;20.71;99877.66;6224547;22;20054;-88
2022/07/02 14:11:10;;;;;;;40.95;7.30;;;;;;;28.06;19.78;99883.59;6277576;22;20019;-88
2022/07/02 14:13:39;;;;;;;35.03;5.90;;;;;;;28.00;20.25;99860.75;6199543;22;20023;-88
2022/07/02 14:16:05;;;;;;;42.95;7.68;;;;;;;28.29;20.04;99882.94;6249764;22;20015;-89
2022/07/02 14:18:32;;;;;;;33.95;5.85;;;;;;;28.40;21.11;99875.16;6199701;22;20020;-87
2022/07/02 14:21:01;;;;;;;50.90;8.10;;;;;;;28.67;20.57;99875.22;6200629;22;20530;-89
2022/07/02 14:23:27;;;;;;;23.73;6.07;;;;;;;28.72;20.04;99871.94;6201502;22;20020;-88
2022/07/02 14:25:54;;;;;;;23.02;5.50;;;;;;;28.44;20.14;99850.59;6201126;22;20035;-87
2022/07/02 14:28:20;;;;;;;;;;;;;;;28.65;19.52;99862.81;6276934;22;20512;-86
2022/07/02 14:30:47;;;;;;;11.10;3.92;;;;;;;28.53;19.08;99856.53;6199381;22;20013;-88
2022/07/02 14:33:17;;;;;;;38.63;5.38;;;;;;;28.67;19.91;99857.53;6199191;22;20387;-88
2022/07/02 14:35:45;;;;;;;39.47;5.07;;;;;;;28.65;21.99;99834.69;6276340;22;20019;-87
2022/07/02 14:38:12;;;;;;;28.90;5.18;;;;;;;28.80;21.29;99836.03;6277355;22;20479;-88
2022/07/02 14:41:30;;;;;;;46.72;6.72;;;;;;;29.00;19.87;99847.44;6274865;22;20016;-87
2022/07/02 14:43:40;;;;;;;19.58;4.30;;;;;;;28.86;21.90;99827.94;6278215;22;20370;-90
2022/07/02 14:46:06;;;;;;;21.65;4.78;;;;;;;29.02;19.39;99834.53;6278670;22;20011;-88
2022/07/02 14:48:33;;;;;;;20.05;4.47;;;;;;;28.77;18.95;99842.53;6200932;22;20453;-88
2022/07/02 14:51:26;;;;;;;23.25;4.95;;;;;;;28.73;19.51;99845.38;6236309;22;20409;-89
2022/07/02 14:53:52;;;;;;;32.10;5.75;;;;;;;28.66;19.70;99825.00;6278857;22;20012;-89
2022/07/02 14:56:19;;;;;;;28.65;5.25;;;;;;;28.94;20.05;99846.28;6281911;22;20019;-89
2022/07/02 14:59:38;;;;;;;26.75;6.95;;;;;;;28.97;21.22;99823.75;6269180;22;20077;-90
2022/07/02 15:02:07;;;;;;;26.73;5.65;;;;;;;29.15;21.27;99831.91;6200820;22;20022;-91
2022/07/02 15:04:36;;;;;;;20.60;5.38;;;;;;;29.24;20.69;99840.63;6201072;22;20345;-90
2022/07/02 15:07:05;;;;;;;32.15;5.65;;;;;;;29.30;19.54;99829.66;6217580;23;20454;-90
2022/07/02 15:09:32;;;;;;;37.78;6.57;;;;;;;29.28;18.95;99832.13;6168665;23;20501;-92
2022/07/02 15:11:58;;;;;;;14.23;5.32;;;;;;;29.12;19.42;99829.97;6168550;23;20032;-89
2022/07/02 15:17:09;;;;;;;31.45;6.25;;;;;;;29.08;20.02;99809.53;6224096;22;20050;-92
2022/07/02 15:19:35;;;;;;;27.58;5.72;;;;;;;29.10;21.11;99798.59;6219602;23;20086;-88
2022/07/02 15:22:06;;;;;;;15.77;4.80;;;;;;;29.17;20.27;99817.41;6245552;23;20095;-87
2022/07/02 15:24:46;;;;;;;28.02;5.15;;;;;;;28.98;19.41;99813.28;6222963;23;20052;-86
2022/07/02 15:27:31;;;;;;;20.75;4.10;;;;;;;29.14;22.10;99826.69;6247739;22;20031;-86
2022/07/02 15:29:58;;;;;;;38.88;4.38;;;;;;;28.91;19.06;99800.13;6250298;22;20024;-85
2022/07/02 15:32:24;;;;;;;27.13;5.10;;;;;;;28.89;19.12;99819.44;6275032;22;20103;-85
2022/07/02 15:34:51;;;;;;;74.30;7.90;;;;;;;28.45;20.26;99803.63;6198716;22;20091;-84
2022/07/02 15:37:17;;;;;;;36.85;5.38;;;;;;;28.41;20.15;99814.09;6277007;22;20019;-86
2022/07/02 15:40:15;;;;;;;42.17;6.32;;;;;;;28.26;20.25;99813.47;6250756;22;20020;-84
2022/07/02 15:42:43;;;;;;;25.38;4.70;;;;;;;28.43;20.83;99801.22;6250043;22;20020;-84
2022/07/02 15:45:12;;;;;;;32.75;5.60;;;;;;;28.53;21.97;99794.63;6197359;22;20011;-83
2022/07/02 15:47:40;;;;;;;34.08;5.78;;;;;;;28.79;21.86;99806.31;6197902;22;20011;-83
2022/07/02 15:50:07;;;;;;;59.40;6.63;;;;;;;28.61;21.64;99784.09;6197417;22;20115;-84
2022/07/02 15:52:42;;;;;;;;;;;;;;;28.87;21.61;99807.00;6247441;22;20077;-84
2022/07/02 15:55:11;;;;;;;26.17;5.53;;;;;;;28.72;21.11;99803.63;6248534;22;19918;-83
2022/07/02 15:57:47;;;;;;;30.67;5.82;;;;;;;28.48;20.99;99788.72;6273942;22;20043;-85
2022/07/02 16:00:14;;;;;;;29.05;5.28;;;;;;;28.31;21.10;99785.69;6274335;22;20082;-85
2022/07/02 16:02:42;;;;;;;39.13;5.97;;;;;;;28.16;21.43;99786.28;6222307;22;20015;-86
2022/07/02 16:05:08;;;;;;;35.33;5.80;;;;;;;27.99;22.91;99790.94;6273435;22;20007;-87
2022/07/02 16:07:38;;;;;;;;;;;;;;;27.95;21.94;99804.22;6222137;22;20034;-85
2022/07/02 16:10:05;;;;;;;25.42;5.40;;;;;;;27.97;23.11;99796.16;6274334;22;19978;-83
2022/07/02 16:12:32;;;;;;;29.25;5.88;;;;;;;27.90;23.11;99799.84;6275252;22;20031;-84
2022/07/02 16:15:01;;;;;;;29.60;5.55;;;;;;;27.76;22.72;99786.75;6248144;22;20399;-84
2022/07/02 16:17:30;;;;;;;23.00;5.20;;;;;;;27.66;23.12;99790.47;6276573;22;20015;-85
2022/07/02 16:19:59;;;;;;;29.52;5.43;;;;;;;27.54;23.32;99793.78;6199207;22;20437;-87
2022/07/02 16:22:26;;;;;;;22.27;4.63;;;;;;;27.46;23.57;99784.66;6276183;22;20016;-87
2022/07/02 16:24:52;;;;;;;46.15;6.70;;;;;;;27.39;24.51;99781.91;6247928;22;20090;-89
2022/07/02 16:27:19;;;;;;;32.08;5.60;;;;;;;27.25;24.23;99782.84;6275676;22;20062;-86
2022/07/02 16:29:45;;;;;;;;;;;;;;;27.16;24.02;99785.34;6198473;22;20020;-83
2022/07/02 16:32:13;;;;;;;;;;;;;;;27.11;24.77;99775.31;6222349;22;19922;-87
2022/07/02 16:34:47;;;;;;;17.00;5.47;;;;;;;27.05;25.21;99776.16;6274398;22;19922;-85
2022/07/02 16:37:18;;;;;;;52.75;7.88;;;;;;;26.98;24.95;99768.59;6247488;22;20016;-83
2022/07/02 16:40:03;;;;;;;28.77;5.18;;;;;;;26.89;26.46;99759.88;6275242;22;20020;-85
2022/07/02 16:42:32;;;;;;;29.05;4.88;;;;;;;26.88;26.26;99769.50;6275275;22;20023;-83
2022/07/02 16:44:59;;;;;;;31.63;5.43;;;;;;;26.68;26.21;99749.59;6222582;22;20059;-85
2022/07/02 16:47:38;;;;;;;55.53;7.03;;;;;;;26.74;25.73;99761.19;6197767;22;20089;-84
2022/07/02 16:50:19;;;;;;;26.92;5.65;;;;;;;26.47;25.94;99751.34;6197385;22;20114;-83
2022/07/02 16:52:56;;;;;;;34.38;8.52;;;;;;;26.43;26.10;99763.78;6273700;22;20482;-84
2022/07/02 16:55:22;;;;;;;18.27;4.60;;;;;;;26.20;26.10;99741.88;6273759;22;20026;-84
2022/07/02 16:57:48;;;;;;;13.85;4.22;;;;;;;25.97;26.45;99729.19;6247287;22;20114;-85